sensor_id;sensor_type;location;lat;lon;timestamp;P1;durP1;ratioP1;P2;durP2;ratioP2
19406;SDS011;9839;53.364;-1.204;2023-04-01T00:00:50;9.67;;;4.00;;
19406;SDS011;9839;53.364;-1.204;2023-04-01T00:03:17;6.80;;;4.00;;
19406;SDS011;9839;53.364;-1.204;2023-04-01T00:05:43;9.23;;;3.60;;
19406;SDS011;9839;53.364;-1.204;2023-04-01T00:08:08;10.50;;;3.60;;
19406;SDS011;9839;53.364;-1.204;2023-04-01T00:10:33;6.70;;;3.93;;
19406;SDS011;9839;53.364;-1.204;2023-04-01T00:12:59;10.87;;;4.07;;
19406;SDS011;9839;53.364;-1.204;2023-04-01T00:15:24;7.47;;;4.20;;
19406;SDS011;9839;53.364;-1.204;2023-04-01T00:17:51;7.10;;;3.90;;
19406;SDS011;9839;53.364;-1.204;2023-04-01T00:20:16;6.73;;;3.30;;
19406;SDS011;9839;53.364;-1.204;2023-04-01T00:22:42;5.80;;;2.33;;
19406;SDS011;9839;53.364;-1.204;2023-04-01T00:25:07;5.47;;;2.70;;
19406;SDS011;9839;53.364;-1.204;2023-04-01T00:27:33;8.50;;;3.13;;
19406;SDS011;9839;53.364;-1.204;2023-04-01T00:29:58;7.63;;;3.27;;
19406;SDS011;9839;53.364;-1.204;2023-04-01T00:32:24;8.53;;;3.70;;
19406;SDS011;9839;53.364;-1.204;2023-04-01T00:34:51;9.53;;;4.20;;
19406;SDS011;9839;53.364;-1.204;2023-04-01T00:37:17;12.47;;;4.57;;
19406;SDS011;9839;53.364;-1.204;2023-04-01T00:39:42;8.73;;;4.40;;
19406;SDS011;9839;53.364;-1.204;2023-04-01T00:42:09;8.10;;;4.43;;
19406;SDS011;9839;53.364;-1.204;2023-04-01T00:44:36;9.03;;;4.63;;
19406;SDS011;9839;53.364;-1.204;2023-04-01T00:47:02;7.60;;;4.80;;
19406;SDS011;9839;53.364;-1.204;2023-04-01T00:49:32;7.53;;;4.30;;
19406;SDS011;9839;53.364;-1.204;2023-04-01T00:52:00;11.07;;;5.57;;
19406;SDS011;9839;53.364;-1.204;2023-04-01T00:54:27;10.30;;;4.77;;
19406;SDS011;9839;53.364;-1.204;2023-04-01T00:56:55;12.97;;;5.37;;
19406;SDS011;9839;53.364;-1.204;2023-04-01T00:59:54;8.30;;;4.57;;
19406;SDS011;9839;53.364;-1.204;2023-04-01T01:02:20;9.53;;;5.17;;
19406;SDS011;9839;53.364;-1.204;2023-04-01T01:04:46;10.10;;;5.10;;
19406;SDS011;9839;53.364;-1.204;2023-04-01T01:12:14;9.17;;;5.00;;
19406;SDS011;9839;53.364;-1.204;2023-04-01T01:15:02;10.60;;;4.27;;
19406;SDS011;9839;53.364;-1.204;2023-04-01T01:36:25;7.20;;;3.57;;
19406;SDS011;9839;53.364;-1.204;2023-04-01T01:38:53;8.53;;;3.60;;
19406;SDS011;9839;53.364;-1.204;2023-04-01T01:41:20;7.50;;;3.40;;
19406;SDS011;9839;53.364;-1.204;2023-04-01T01:43:47;12.90;;;4.37;;
19406;SDS011;9839;53.364;-1.204;2023-04-01T01:46:16;6.30;;;3.37;;
19406;SDS011;9839;53.364;-1.204;2023-04-01T01:48:44;8.27;;;3.50;;
19406;SDS011;9839;53.364;-1.204;2023-04-01T01:51:11;6.57;;;2.47;;
19406;SDS011;9839;53.364;-1.204;2023-04-01T01:53:36;6.13;;;2.73;;
19406;SDS011;9839;53.364;-1.204;2023-04-01T01:56:02;3.53;;;2.03;;
19406;SDS011;9839;53.364;-1.204;2023-04-01T02:01:01;3.93;;;2.20;;
19406;SDS011;9839;53.364;-1.204;2023-04-01T02:03:29;3.40;;;1.50;;
19406;SDS011;9839;53.364;-1.204;2023-04-01T02:05:57;7.73;;;1.70;;
19406;SDS011;9839;53.364;-1.204;2023-04-01T02:08:30;6.27;;;2.10;;
19406;SDS011;9839;53.364;-1.204;2023-04-01T02:11:01;3.37;;;1.90;;
19406;SDS011;9839;53.364;-1.204;2023-04-01T02:16:25;13.13;;;3.80;;
19406;SDS011;9839;53.364;-1.204;2023-04-01T02:18:54;8.57;;;3.90;;
19406;SDS011;9839;53.364;-1.204;2023-04-01T02:21:21;4.70;;;2.63;;
19406;SDS011;9839;53.364;-1.204;2023-04-01T02:23:47;7.13;;;3.70;;
19406;SDS011;9839;53.364;-1.204;2023-04-01T02:26:14;8.87;;;3.70;;
19406;SDS011;9839;53.364;-1.204;2023-04-01T02:28:40;7.73;;;3.80;;
19406;SDS011;9839;53.364;-1.204;2023-04-01T02:31:07;8.13;;;3.67;;
19406;SDS011;9839;53.364;-1.204;2023-04-01T02:33:34;7.73;;;3.27;;
19406;SDS011;9839;53.364;-1.204;2023-04-01T02:35:59;9.43;;;3.57;;
19406;SDS011;9839;53.364;-1.204;2023-04-01T02:38:25;6.43;;;2.70;;
19406;SDS011;9839;53.364;-1.204;2023-04-01T02:40:52;6.30;;;2.53;;
19406;SDS011;9839;53.364;-1.204;2023-04-01T02:43:25;4.57;;;2.60;;
19406;SDS011;9839;53.364;-1.204;2023-04-01T02:45:51;4.60;;;2.40;;
19406;SDS011;9839;53.364;-1.204;2023-04-01T02:48:16;3.77;;;1.43;;
19406;SDS011;9839;53.364;-1.204;2023-04-01T02:50:42;2.53;;;1.57;;
19406;SDS011;9839;53.364;-1.204;2023-04-01T02:53:07;5.33;;;2.17;;
19406;SDS011;9839;53.364;-1.204;2023-04-01T02:55:33;4.33;;;1.63;;
19406;SDS011;9839;53.364;-1.204;2023-04-01T02:57:58;4.87;;;1.90;;
19406;SDS011;9839;53.364;-1.204;2023-04-01T03:00:24;4.60;;;1.90;;
19406;SDS011;9839;53.364;-1.204;2023-04-01T03:02:51;5.20;;;1.97;;
19406;SDS011;9839;53.364;-1.204;2023-04-01T03:05:17;6.73;;;1.70;;
19406;SDS011;9839;53.364;-1.204;2023-04-01T03:07:43;3.47;;;1.70;;
19406;SDS011;9839;53.364;-1.204;2023-04-01T03:10:08;6.73;;;2.00;;
19406;SDS011;9839;53.364;-1.204;2023-04-01T03:12:34;5.90;;;1.60;;
19406;SDS011;9839;53.364;-1.204;2023-04-01T03:14:59;3.23;;;1.70;;
19406;SDS011;9839;53.364;-1.204;2023-04-01T03:17:25;5.67;;;2.07;;
19406;SDS011;9839;53.364;-1.204;2023-04-01T03:19:50;3.80;;;1.23;;
19406;SDS011;9839;53.364;-1.204;2023-04-01T03:22:16;7.13;;;1.50;;
19406;SDS011;9839;53.364;-1.204;2023-04-01T03:24:41;11.83;;;2.27;;
19406;SDS011;9839;53.364;-1.204;2023-04-01T03:27:07;8.10;;;2.07;;
19406;SDS011;9839;53.364;-1.204;2023-04-01T03:29:32;11.43;;;2.10;;
19406;SDS011;9839;53.364;-1.204;2023-04-01T03:31:58;4.23;;;1.83;;
19406;SDS011;9839;53.364;-1.204;2023-04-01T03:34:24;5.60;;;2.03;;
19406;SDS011;9839;53.364;-1.204;2023-04-01T03:36:51;6.97;;;2.00;;
19406;SDS011;9839;53.364;-1.204;2023-04-01T03:39:16;4.87;;;2.07;;
19406;SDS011;9839;53.364;-1.204;2023-04-01T03:41:43;4.73;;;1.83;;
19406;SDS011;9839;53.364;-1.204;2023-04-01T03:44:10;7.40;;;1.67;;
19406;SDS011;9839;53.364;-1.204;2023-04-01T03:46:35;10.67;;;2.03;;
19406;SDS011;9839;53.364;-1.204;2023-04-01T03:49:01;5.60;;;1.57;;
19406;SDS011;9839;53.364;-1.204;2023-04-01T03:51:27;6.30;;;1.73;;
19406;SDS011;9839;53.364;-1.204;2023-04-01T03:53:52;7.70;;;2.53;;
19406;SDS011;9839;53.364;-1.204;2023-04-01T03:56:18;6.93;;;2.00;;
19406;SDS011;9839;53.364;-1.204;2023-04-01T03:58:43;7.47;;;1.80;;
19406;SDS011;9839;53.364;-1.204;2023-04-01T04:01:16;6.63;;;1.80;;
19406;SDS011;9839;53.364;-1.204;2023-04-01T04:03:43;6.13;;;2.37;;
19406;SDS011;9839;53.364;-1.204;2023-04-01T04:06:12;2.83;;;1.80;;
19406;SDS011;9839;53.364;-1.204;2023-04-01T04:08:38;2.53;;;1.63;;
19406;SDS011;9839;53.364;-1.204;2023-04-01T04:11:04;6.33;;;2.07;;
19406;SDS011;9839;53.364;-1.204;2023-04-01T04:13:30;5.07;;;2.00;;
19406;SDS011;9839;53.364;-1.204;2023-04-01T04:15:55;5.27;;;1.67;;
19406;SDS011;9839;53.364;-1.204;2023-04-01T04:18:21;6.83;;;2.00;;
19406;SDS011;9839;53.364;-1.204;2023-04-01T04:20:46;9.93;;;2.47;;
19406;SDS011;9839;53.364;-1.204;2023-04-01T04:23:15;8.60;;;2.53;;
19406;SDS011;9839;53.364;-1.204;2023-04-01T04:25:40;8.30;;;2.67;;
19406;SDS011;9839;53.364;-1.204;2023-04-01T04:28:06;7.70;;;2.33;;
19406;SDS011;9839;53.364;-1.204;2023-04-01T04:30:31;7.13;;;2.53;;
19406;SDS011;9839;53.364;-1.204;2023-04-01T04:32:57;6.87;;;2.03;;
19406;SDS011;9839;53.364;-1.204;2023-04-01T04:35:22;6.80;;;2.10;;
19406;SDS011;9839;53.364;-1.204;2023-04-01T04:37:47;7.00;;;2.00;;
19406;SDS011;9839;53.364;-1.204;2023-04-01T04:40:13;8.07;;;1.87;;
19406;SDS011;9839;53.364;-1.204;2023-04-01T04:42:38;4.80;;;2.00;;
19406;SDS011;9839;53.364;-1.204;2023-04-01T04:45:04;9.73;;;1.83;;
19406;SDS011;9839;53.364;-1.204;2023-04-01T04:47:30;4.50;;;1.63;;
19406;SDS011;9839;53.364;-1.204;2023-04-01T04:49:56;7.77;;;2.60;;
19406;SDS011;9839;53.364;-1.204;2023-04-01T04:52:22;3.43;;;1.93;;
19406;SDS011;9839;53.364;-1.204;2023-04-01T04:54:47;4.37;;;1.70;;
19406;SDS011;9839;53.364;-1.204;2023-04-01T04:57:13;9.03;;;1.90;;
19406;SDS011;9839;53.364;-1.204;2023-04-01T04:59:38;3.90;;;1.97;;
19406;SDS011;9839;53.364;-1.204;2023-04-01T05:02:03;4.57;;;2.00;;
19406;SDS011;9839;53.364;-1.204;2023-04-01T05:04:29;5.97;;;2.07;;
19406;SDS011;9839;53.364;-1.204;2023-04-01T05:06:54;5.70;;;1.73;;
19406;SDS011;9839;53.364;-1.204;2023-04-01T05:09:20;8.03;;;1.70;;
19406;SDS011;9839;53.364;-1.204;2023-04-01T05:11:45;7.10;;;1.80;;
19406;SDS011;9839;53.364;-1.204;2023-04-01T05:14:14;7.43;;;1.60;;
19406;SDS011;9839;53.364;-1.204;2023-04-01T05:16:40;5.10;;;1.70;;
19406;SDS011;9839;53.364;-1.204;2023-04-01T05:19:06;5.90;;;1.53;;
19406;SDS011;9839;53.364;-1.204;2023-04-01T05:21:31;6.33;;;1.73;;
19406;SDS011;9839;53.364;-1.204;2023-04-01T05:23:56;3.87;;;1.43;;
19406;SDS011;9839;53.364;-1.204;2023-04-01T05:26:22;4.37;;;1.47;;
19406;SDS011;9839;53.364;-1.204;2023-04-01T05:28:47;3.50;;;1.30;;
19406;SDS011;9839;53.364;-1.204;2023-04-01T05:31:13;7.10;;;1.60;;
19406;SDS011;9839;53.364;-1.204;2023-04-01T05:33:38;4.87;;;1.27;;
19406;SDS011;9839;53.364;-1.204;2023-04-01T05:38:32;5.20;;;1.90;;
19406;SDS011;9839;53.364;-1.204;2023-04-01T05:41:01;3.37;;;1.30;;
19406;SDS011;9839;53.364;-1.204;2023-04-01T05:43:27;6.27;;;1.60;;
19406;SDS011;9839;53.364;-1.204;2023-04-01T05:45:53;3.03;;;1.57;;
19406;SDS011;9839;53.364;-1.204;2023-04-01T05:48:18;5.70;;;2.20;;
19406;SDS011;9839;53.364;-1.204;2023-04-01T05:50:43;5.33;;;1.93;;
19406;SDS011;9839;53.364;-1.204;2023-04-01T05:53:09;5.63;;;1.67;;
19406;SDS011;9839;53.364;-1.204;2023-04-01T05:55:35;5.27;;;1.83;;
19406;SDS011;9839;53.364;-1.204;2023-04-01T05:58:01;4.27;;;1.57;;
19406;SDS011;9839;53.364;-1.204;2023-04-01T06:00:26;4.97;;;1.47;;
19406;SDS011;9839;53.364;-1.204;2023-04-01T06:02:51;4.23;;;1.30;;
19406;SDS011;9839;53.364;-1.204;2023-04-01T06:05:21;6.90;;;1.50;;
19406;SDS011;9839;53.364;-1.204;2023-04-01T06:07:48;6.40;;;1.23;;
19406;SDS011;9839;53.364;-1.204;2023-04-01T06:10:17;4.00;;;1.40;;
19406;SDS011;9839;53.364;-1.204;2023-04-01T06:15:43;6.00;;;1.53;;
19406;SDS011;9839;53.364;-1.204;2023-04-01T06:20:59;7.87;;;2.00;;
19406;SDS011;9839;53.364;-1.204;2023-04-01T06:26:18;7.33;;;2.03;;
19406;SDS011;9839;53.364;-1.204;2023-04-01T06:39:56;6.27;;;1.73;;
19406;SDS011;9839;53.364;-1.204;2023-04-01T06:48:02;3.63;;;1.50;;
19406;SDS011;9839;53.364;-1.204;2023-04-01T06:51:12;3.57;;;1.60;;
19406;SDS011;9839;53.364;-1.204;2023-04-01T06:54:20;9.10;;;1.73;;
19406;SDS011;9839;53.364;-1.204;2023-04-01T06:56:46;6.57;;;1.63;;
19406;SDS011;9839;53.364;-1.204;2023-04-01T06:59:22;8.03;;;1.80;;
19406;SDS011;9839;53.364;-1.204;2023-04-01T07:02:16;5.90;;;2.00;;
19406;SDS011;9839;53.364;-1.204;2023-04-01T07:04:48;5.93;;;1.50;;
19406;SDS011;9839;53.364;-1.204;2023-04-01T07:09:56;3.77;;;2.00;;
19406;SDS011;9839;53.364;-1.204;2023-04-01T07:12:37;5.03;;;1.50;;
19406;SDS011;9839;53.364;-1.204;2023-04-01T07:15:51;4.47;;;1.87;;
19406;SDS011;9839;53.364;-1.204;2023-04-01T07:18:28;4.10;;;1.43;;
19406;SDS011;9839;53.364;-1.204;2023-04-01T07:21:20;3.27;;;1.97;;
19406;SDS011;9839;53.364;-1.204;2023-04-01T07:24:06;6.67;;;1.63;;
19406;SDS011;9839;53.364;-1.204;2023-04-01T07:26:35;5.80;;;1.53;;
19406;SDS011;9839;53.364;-1.204;2023-04-01T07:29:01;4.83;;;1.70;;
19406;SDS011;9839;53.364;-1.204;2023-04-01T07:34:27;7.07;;;2.10;;
19406;SDS011;9839;53.364;-1.204;2023-04-01T07:37:03;5.73;;;1.57;;
19406;SDS011;9839;53.364;-1.204;2023-04-01T07:39:43;3.83;;;1.70;;
19406;SDS011;9839;53.364;-1.204;2023-04-01T07:42:51;3.87;;;1.73;;
19406;SDS011;9839;53.364;-1.204;2023-04-01T07:48:26;7.57;;;2.10;;
19406;SDS011;9839;53.364;-1.204;2023-04-01T07:51:03;9.60;;;2.10;;
19406;SDS011;9839;53.364;-1.204;2023-04-01T07:54:02;6.87;;;2.57;;
19406;SDS011;9839;53.364;-1.204;2023-04-01T07:56:39;10.67;;;2.30;;
19406;SDS011;9839;53.364;-1.204;2023-04-01T08:07:25;7.07;;;1.90;;
19406;SDS011;9839;53.364;-1.204;2023-04-01T08:09:59;9.80;;;2.20;;
19406;SDS011;9839;53.364;-1.204;2023-04-01T08:15:48;8.90;;;2.60;;
19406;SDS011;9839;53.364;-1.204;2023-04-01T08:23:52;9.80;;;2.13;;
19406;SDS011;9839;53.364;-1.204;2023-04-01T08:29:24;6.17;;;2.20;;
19406;SDS011;9839;53.364;-1.204;2023-04-01T08:32:18;7.83;;;2.17;;
19406;SDS011;9839;53.364;-1.204;2023-04-01T08:34:48;6.03;;;2.20;;
19406;SDS011;9839;53.364;-1.204;2023-04-01T08:37:36;5.10;;;2.73;;
19406;SDS011;9839;53.364;-1.204;2023-04-01T08:40:27;3.83;;;2.23;;
19406;SDS011;9839;53.364;-1.204;2023-04-01T08:43:00;6.20;;;2.43;;
19406;SDS011;9839;53.364;-1.204;2023-04-01T08:51:32;2.63;;;2.20;;
19406;SDS011;9839;53.364;-1.204;2023-04-01T08:54:39;4.60;;;2.27;;
19406;SDS011;9839;53.364;-1.204;2023-04-01T09:00:48;4.20;;;2.17;;
19406;SDS011;9839;53.364;-1.204;2023-04-01T09:17:45;4.23;;;1.67;;
19406;SDS011;9839;53.364;-1.204;2023-04-01T09:28:27;5.47;;;1.80;;
19406;SDS011;9839;53.364;-1.204;2023-04-01T09:41:52;2.40;;;1.30;;
19406;SDS011;9839;53.364;-1.204;2023-04-01T09:55:50;2.10;;;1.60;;
19406;SDS011;9839;53.364;-1.204;2023-04-01T10:20:37;3.73;;;1.70;;
19406;SDS011;9839;53.364;-1.204;2023-04-01T10:26:08;6.20;;;1.70;;
19406;SDS011;9839;53.364;-1.204;2023-04-01T10:47:30;3.20;;;1.03;;
19406;SDS011;9839;53.364;-1.204;2023-04-01T11:01:55;0.70;;;0.60;;
19406;SDS011;9839;53.364;-1.204;2023-04-01T11:21:59;3.87;;;1.80;;
19406;SDS011;9839;53.364;-1.204;2023-04-01T11:27:41;2.03;;;1.10;;
19406;SDS011;9839;53.364;-1.204;2023-04-01T11:30:20;2.30;;;1.47;;
19406;SDS011;9839;53.364;-1.204;2023-04-01T11:33:00;2.23;;;1.40;;
19406;SDS011;9839;53.364;-1.204;2023-04-01T12:04:11;1.90;;;1.20;;
19406;SDS011;9839;53.364;-1.204;2023-04-01T12:09:52;2.10;;;1.13;;
19406;SDS011;9839;53.364;-1.204;2023-04-01T12:17:53;1.27;;;0.70;;
19406;SDS011;9839;53.364;-1.204;2023-04-01T12:32:09;3.37;;;1.30;;
19406;SDS011;9839;53.364;-1.204;2023-04-01T12:37:39;3.50;;;1.10;;
19406;SDS011;9839;53.364;-1.204;2023-04-01T12:45:45;1.20;;;0.80;;
19406;SDS011;9839;53.364;-1.204;2023-04-01T13:02:12;2.70;;;1.30;;
19406;SDS011;9839;53.364;-1.204;2023-04-01T13:20:24;6.83;;;1.10;;
19406;SDS011;9839;53.364;-1.204;2023-04-01T13:25:38;1.50;;;1.00;;
19406;SDS011;9839;53.364;-1.204;2023-04-01T14:12:39;2.50;;;1.43;;
19406;SDS011;9839;53.364;-1.204;2023-04-01T14:15:15;2.80;;;1.30;;
19406;SDS011;9839;53.364;-1.204;2023-04-01T14:26:20;4.63;;;1.93;;
19406;SDS011;9839;53.364;-1.204;2023-04-01T14:29:23;3.83;;;1.77;;
19406;SDS011;9839;53.364;-1.204;2023-04-01T14:35:22;2.67;;;1.47;;
19406;SDS011;9839;53.364;-1.204;2023-04-01T14:38:11;3.40;;;1.20;;
19406;SDS011;9839;53.364;-1.204;2023-04-01T14:54:59;2.77;;;1.13;;
19406;SDS011;9839;53.364;-1.204;2023-04-01T14:57:27;5.43;;;1.30;;
19406;SDS011;9839;53.364;-1.204;2023-04-01T15:08:03;5.73;;;2.90;;
19406;SDS011;9839;53.364;-1.204;2023-04-01T15:13:15;4.60;;;2.30;;
19406;SDS011;9839;53.364;-1.204;2023-04-01T15:24:18;5.77;;;1.60;;
19406;SDS011;9839;53.364;-1.204;2023-04-01T15:37:22;3.20;;;1.80;;
19406;SDS011;9839;53.364;-1.204;2023-04-01T15:57:40;5.43;;;2.10;;
19406;SDS011;9839;53.364;-1.204;2023-04-01T16:00:13;6.80;;;2.07;;
19406;SDS011;9839;53.364;-1.204;2023-04-01T16:02:54;8.30;;;2.50;;
19406;SDS011;9839;53.364;-1.204;2023-04-01T16:05:54;7.07;;;2.70;;
19406;SDS011;9839;53.364;-1.204;2023-04-01T16:19:12;11.23;;;3.43;;
19406;SDS011;9839;53.364;-1.204;2023-04-01T16:21:50;11.87;;;3.07;;
19406;SDS011;9839;53.364;-1.204;2023-04-01T16:27:08;12.47;;;3.10;;
19406;SDS011;9839;53.364;-1.204;2023-04-01T16:29:55;13.33;;;2.60;;
19406;SDS011;9839;53.364;-1.204;2023-04-01T16:38:25;9.13;;;3.17;;
19406;SDS011;9839;53.364;-1.204;2023-04-01T16:41:05;8.43;;;2.50;;
19406;SDS011;9839;53.364;-1.204;2023-04-01T16:43:43;7.83;;;3.23;;
19406;SDS011;9839;53.364;-1.204;2023-04-01T16:49:04;8.67;;;3.40;;
19406;SDS011;9839;53.364;-1.204;2023-04-01T16:59:35;9.70;;;3.53;;
19406;SDS011;9839;53.364;-1.204;2023-04-01T17:02:10;4.47;;;3.40;;
19406;SDS011;9839;53.364;-1.204;2023-04-01T17:23:40;10.63;;;3.90;;
19406;SDS011;9839;53.364;-1.204;2023-04-01T17:28:51;9.03;;;3.90;;
19406;SDS011;9839;53.364;-1.204;2023-04-01T17:31:33;6.90;;;3.10;;
19406;SDS011;9839;53.364;-1.204;2023-04-01T17:34:16;10.73;;;3.37;;
19406;SDS011;9839;53.364;-1.204;2023-04-01T17:42:41;5.17;;;2.80;;
19406;SDS011;9839;53.364;-1.204;2023-04-01T17:45:26;7.03;;;3.13;;
19406;SDS011;9839;53.364;-1.204;2023-04-01T17:48:08;6.17;;;3.30;;
19406;SDS011;9839;53.364;-1.204;2023-04-01T17:56:04;8.60;;;3.80;;
19406;SDS011;9839;53.364;-1.204;2023-04-01T17:58:40;7.37;;;3.13;;
19406;SDS011;9839;53.364;-1.204;2023-04-01T18:11:59;19.60;;;6.73;;
19406;SDS011;9839;53.364;-1.204;2023-04-01T18:22:19;8.63;;;4.27;;
19406;SDS011;9839;53.364;-1.204;2023-04-01T18:25:10;11.63;;;4.23;;
19406;SDS011;9839;53.364;-1.204;2023-04-01T18:27:41;10.07;;;4.30;;
19406;SDS011;9839;53.364;-1.204;2023-04-01T18:32:35;5.60;;;4.10;;
19406;SDS011;9839;53.364;-1.204;2023-04-01T18:45:27;8.60;;;4.17;;
19406;SDS011;9839;53.364;-1.204;2023-04-01T18:50:41;7.03;;;3.40;;
19406;SDS011;9839;53.364;-1.204;2023-04-01T18:58:59;8.13;;;4.00;;
19406;SDS011;9839;53.364;-1.204;2023-04-01T19:04:15;7.00;;;3.23;;
19406;SDS011;9839;53.364;-1.204;2023-04-01T19:09:48;6.80;;;3.30;;
19406;SDS011;9839;53.364;-1.204;2023-04-01T19:17:45;5.17;;;2.67;;
19406;SDS011;9839;53.364;-1.204;2023-04-01T19:20:32;7.33;;;2.70;;
19406;SDS011;9839;53.364;-1.204;2023-04-01T19:23:14;6.50;;;2.40;;
19406;SDS011;9839;53.364;-1.204;2023-04-01T19:25:49;5.93;;;2.77;;
19406;SDS011;9839;53.364;-1.204;2023-04-01T19:30:58;6.27;;;2.10;;
19406;SDS011;9839;53.364;-1.204;2023-04-01T19:33:54;4.77;;;2.13;;
19406;SDS011;9839;53.364;-1.204;2023-04-01T19:36:36;8.83;;;3.10;;
19406;SDS011;9839;53.364;-1.204;2023-04-01T19:42:06;7.23;;;2.70;;
19406;SDS011;9839;53.364;-1.204;2023-04-01T19:47:53;6.03;;;2.00;;
19406;SDS011;9839;53.364;-1.204;2023-04-01T19:50:34;7.33;;;3.50;;
19406;SDS011;9839;53.364;-1.204;2023-04-01T20:01:27;5.33;;;2.40;;
19406;SDS011;9839;53.364;-1.204;2023-04-01T20:04:02;16.53;;;6.23;;
19406;SDS011;9839;53.364;-1.204;2023-04-01T20:09:31;5.80;;;2.40;;
19406;SDS011;9839;53.364;-1.204;2023-04-01T20:12:08;6.63;;;2.80;;
19406;SDS011;9839;53.364;-1.204;2023-04-01T20:14:59;9.20;;;2.80;;
19406;SDS011;9839;53.364;-1.204;2023-04-01T20:25:31;3.20;;;1.60;;
19406;SDS011;9839;53.364;-1.204;2023-04-01T20:27:58;2.77;;;1.67;;
19406;SDS011;9839;53.364;-1.204;2023-04-01T20:33:06;4.80;;;1.60;;
19406;SDS011;9839;53.364;-1.204;2023-04-01T20:39:16;2.77;;;1.50;;
19406;SDS011;9839;53.364;-1.204;2023-04-01T20:49:14;3.63;;;1.73;;
19406;SDS011;9839;53.364;-1.204;2023-04-01T20:57:27;5.20;;;1.67;;
19406;SDS011;9839;53.364;-1.204;2023-04-01T21:03:03;4.43;;;2.00;;
19406;SDS011;9839;53.364;-1.204;2023-04-01T21:13:33;7.70;;;2.60;;
19406;SDS011;9839;53.364;-1.204;2023-04-01T21:22:06;11.27;;;5.70;;
19406;SDS011;9839;53.364;-1.204;2023-04-01T21:32:41;9.13;;;4.30;;
19406;SDS011;9839;53.364;-1.204;2023-04-01T21:35:39;11.83;;;4.73;;
19406;SDS011;9839;53.364;-1.204;2023-04-01T22:07:55;5.97;;;2.20;;
19406;SDS011;9839;53.364;-1.204;2023-04-01T22:10:54;8.37;;;2.43;;
19406;SDS011;9839;53.364;-1.204;2023-04-01T22:13:49;3.80;;;1.70;;
19406;SDS011;9839;53.364;-1.204;2023-04-01T22:24:32;1.90;;;1.10;;
19406;SDS011;9839;53.364;-1.204;2023-04-01T22:27:01;3.17;;;1.70;;
19406;SDS011;9839;53.364;-1.204;2023-04-01T22:32:49;3.47;;;1.47;;
19406;SDS011;9839;53.364;-1.204;2023-04-01T22:43:37;2.07;;;1.50;;
19406;SDS011;9839;53.364;-1.204;2023-04-01T22:46:11;3.03;;;1.33;;
19406;SDS011;9839;53.364;-1.204;2023-04-01T22:54:58;2.07;;;1.10;;
19406;SDS011;9839;53.364;-1.204;2023-04-01T22:57:37;1.90;;;1.10;;
19406;SDS011;9839;53.364;-1.204;2023-04-01T23:02:40;1.33;;;1.23;;
19406;SDS011;9839;53.364;-1.204;2023-04-01T23:05:10;2.47;;;1.30;;
19406;SDS011;9839;53.364;-1.204;2023-04-01T23:08:26;1.73;;;1.40;;
19406;SDS011;9839;53.364;-1.204;2023-04-01T23:10:55;2.17;;;1.50;;
19406;SDS011;9839;53.364;-1.204;2023-04-01T23:13:26;3.10;;;1.80;;
19406;SDS011;9839;53.364;-1.204;2023-04-01T23:15:57;4.10;;;1.57;;
19406;SDS011;9839;53.364;-1.204;2023-04-01T23:29:02;5.50;;;1.90;;
19406;SDS011;9839;53.364;-1.204;2023-04-01T23:34:02;5.03;;;1.97;;
19406;SDS011;9839;53.364;-1.204;2023-04-01T23:36:29;5.60;;;1.97;;
19406;SDS011;9839;53.364;-1.204;2023-04-01T23:38:55;3.27;;;2.07;;
19406;SDS011;9839;53.364;-1.204;2023-04-01T23:41:28;2.70;;;1.60;;
19406;SDS011;9839;53.364;-1.204;2023-04-01T23:44:00;8.87;;;2.03;;
19406;SDS011;9839;53.364;-1.204;2023-04-01T23:46:28;3.50;;;2.20;;
19406;SDS011;9839;53.364;-1.204;2023-04-01T23:48:55;5.43;;;2.50;;
19406;SDS011;9839;53.364;-1.204;2023-04-01T23:51:22;5.93;;;3.10;;
19406;SDS011;9839;53.364;-1.204;2023-04-01T23:53:55;4.93;;;3.47;;
19406;SDS011;9839;53.364;-1.204;2023-04-01T23:56:31;5.57;;;3.63;;
19406;SDS011;9839;53.364;-1.204;2023-04-01T23:58:59;7.27;;;4.57;;
